Time;durP1;ratioP1;P1;durP2;ratioP2;P2;SDS_P1;SDS_P2;PMS_P1;PMS_P2;Temp;Humidity;BMP_temperature;BMP_pressure;BME280_temperature;BME280_humidity;BME280_pressure;Samples;Min_cycle;Max_cycle;Signal;HPM_P1;HPM_P2
2022/12/16 00:00:22;;;;;;;37.03;21.63;;;0.30;99.90;;;;;;5049836;28;20037;-68
2022/12/16 00:02:51;;;;;;;50.08;23.55;;;0.30;99.90;;;;;;5050412;28;20403;-69
2022/12/16 00:05:19;;;;;;;39.65;21.45;;;0.30;99.90;;;;;;5049172;28;20110;-71
2022/12/16 00:07:45;;;;;;;44.00;21.98;;;0.30;99.90;;;;;;5049690;28;20494;-69
2022/12/16 00:10:11;;;;;;;39.95;20.55;;;0.30;99.90;;;;;;5050118;28;20416;-71
2022/12/16 00:12:37;;;;;;;41.60;22.58;;;0.30;99.90;;;;;;5049838;28;20116;-69
2022/12/16 00:15:03;;;;;;;36.85;20.60;;;0.30;99.90;;;;;;5049056;28;20120;-69
2022/12/16 00:17:28;;;;;;;42.63;21.73;;;0.30;99.90;;;;;;5051102;28;20406;-70
2022/12/16 00:19:54;;;;;;;38.15;21.27;;;0.40;99.90;;;;;;5051066;28;20044;-69
2022/12/16 00:22:20;;;;;;;40.47;21.63;;;0.40;99.90;;;;;;5049787;28;20452;-70
2022/12/16 00:24:45;;;;;;;40.70;21.42;;;0.40;99.90;;;;;;5050214;28;20037;-70
2022/12/16 00:27:11;;;;;;;39.08;21.25;;;0.40;99.90;;;;;;5051095;28;20040;-70
2022/12/16 00:29:36;;;;;;;39.08;20.80;;;0.30;99.90;;;;;;5050563;28;20493;-70
2022/12/16 00:32:02;;;;;;;39.40;20.70;;;0.50;99.90;;;;;;5050914;28;20048;-69
2022/12/16 00:34:28;;;;;;;41.03;20.70;;;0.30;99.90;;;;;;5048801;28;20076;-70
2022/12/16 00:36:53;;;;;;;43.60;21.75;;;0.40;99.90;;;;;;5049515;28;20085;-73
2022/12/16 00:39:19;;;;;;;39.33;20.27;;;0.40;99.90;;;;;;5049517;28;20045;-70
2022/12/16 00:41:46;;;;;;;37.90;21.23;;;0.30;99.90;;;;;;5049371;28;20056;-69
2022/12/16 00:44:12;;;;;;;42.55;22.15;;;0.40;99.90;;;;;;5048626;28;20051;-72
2022/12/16 00:46:38;;;;;;;40.60;21.33;;;0.30;99.90;;;;;;5049682;28;20045;-69
2022/12/16 00:49:04;;;;;;;40.53;21.90;;;0.40;99.90;;;;;;5032804;28;20041;-70
2022/12/16 00:51:30;;;;;;;39.65;21.88;;;0.40;99.90;;;;;;5049298;28;20040;-71
2022/12/16 00:53:55;;;;;;;40.60;21.10;;;0.40;99.90;;;;;;5049930;28;20436;-69
2022/12/16 00:56:21;;;;;;;38.90;20.75;;;0.40;99.90;;;;;;5032738;28;20509;-69
2022/12/16 00:58:46;;;;;;;41.45;22.00;;;0.50;99.90;;;;;;5082532;28;20052;-70
2022/12/16 01:01:12;;;;;;;39.45;20.67;;;0.50;99.90;;;;;;5049268;28;20101;-72
2022/12/16 01:03:38;;;;;;;42.35;20.08;;;0.50;99.90;;;;;;5049176;28;20421;-69
2022/12/16 01:06:12;;;;;;;45.70;21.60;;;0.50;99.90;;;;;;5049806;28;20055;-70
2022/12/16 01:08:38;;;;;;;36.30;20.30;;;0.50;99.90;;;;;;5032682;28;20417;-72
2022/12/16 01:11:04;;;;;;;44.90;21.40;;;0.50;99.90;;;;;;5047529;28;20049;-71
2022/12/16 01:13:30;;;;;;;37.70;19.88;;;0.50;99.90;;;;;;5048921;28;20041;-69
2022/12/16 01:15:59;;;;;;;39.00;21.65;;;0.50;99.90;;;;;;5048441;28;20037;-70
2022/12/16 01:18:24;;;;;;;40.25;21.20;;;0.50;99.90;;;;;;5048952;28;20102;-71
2022/12/16 01:20:50;;;;;;;47.25;21.35;;;0.50;99.90;;;;;;5049196;28;20489;-69
2022/12/16 01:23:15;;;;;;;38.17;20.42;;;0.50;99.90;;;;;;5050617;28;20063;-70
2022/12/16 01:25:41;;;;;;;43.90;22.15;;;0.50;99.90;;;;;;5049965;28;20048;-69
2022/12/16 01:28:07;;;;;;;40.72;21.52;;;0.50;99.90;;;;;;5049052;28;20529;-71
2022/12/16 01:30:32;;;;;;;49.22;22.02;;;0.50;99.90;;;;;;5049276;28;20409;-69
2022/12/16 01:32:58;;;;;;;42.60;21.02;;;0.40;99.90;;;;;;5049377;28;20440;-69
2022/12/16 01:35:23;;;;;;;40.60;20.80;;;0.40;99.90;;;;;;5048409;28;20052;-71
2022/12/16 01:37:49;;;;;;;43.95;22.13;;;0.40;99.90;;;;;;5032571;28;20045;-71
2022/12/16 01:40:21;;;;;;;39.47;21.10;;;0.40;99.90;;;;;;5048781;28;20099;-69
2022/12/16 01:42:47;;;;;;;46.13;23.10;;;0.40;99.90;;;;;;5052339;28;20550;-69
2022/12/16 01:45:34;;;;;;;40.15;20.27;;;0.50;99.90;;;;;;5051865;28;20044;-69
2022/12/16 01:48:33;;;;;;;36.83;20.60;;;0.50;99.90;;;;;;5052562;28;20048;-71
2022/12/16 01:51:05;;;;;;;41.50;21.65;;;0.50;99.90;;;;;;5046960;28;20052;-72
2022/12/16 01:53:31;;;;;;;40.83;21.10;;;0.50;99.90;;;;;;5052911;28;20051;-69
2022/12/16 01:55:58;;;;;;;35.50;20.52;;;0.60;99.90;;;;;;5051992;28;20570;-69
2022/12/16 01:58:28;;;;;;;41.63;22.80;;;0.50;99.90;;;;;;5053539;28;20033;-70
2022/12/16 02:00:54;;;;;;;45.45;22.92;;;0.50;99.90;;;;;;5052377;28;20052;-71
2022/12/16 02:03:19;;;;;;;33.38;20.92;;;0.50;99.90;;;;;;5052304;28;20037;-73
2022/12/16 02:05:46;;;;;;;41.28;21.13;;;0.50;99.90;;;;;;5052857;28;20459;-69
2022/12/16 02:08:16;;;;;;;34.95;19.73;;;0.50;99.90;;;;;;5053608;28;20048;-69
2022/12/16 02:10:42;;;;;;;37.97;20.27;;;0.50;99.90;;;;;;5052577;28;20102;-70
2022/12/16 02:13:35;;;;;;;41.20;20.70;;;0.50;99.90;;;;;;5052144;28;20094;-69
2022/12/16 02:16:06;;;;;;;43.55;21.98;;;0.40;99.90;;;;;;5051410;28;20120;-70
2022/12/16 02:18:56;;;;;;;39.97;20.40;;;0.50;99.90;;;;;;5052111;28;20116;-70
2022/12/16 02:21:27;;;;;;;39.38;20.00;;;0.40;99.90;;;;;;5053258;28;20052;-71
2022/12/16 02:24:25;;;;;;;44.30;21.65;;;0.40;99.90;;;;;;5051265;28;20061;-69
2022/12/16 02:27:00;;;;;;;43.65;22.30;;;0.40;99.90;;;;;;5049094;28;20150;-69
2022/12/16 02:29:40;;;;;;;49.65;20.63;;;0.40;99.90;;;;;;5051849;28;20087;-69
2022/12/16 02:32:25;;;;;;;42.15;21.23;;;0.40;99.90;;;;;;5069133;28;20036;-69
2022/12/16 02:35:07;;;;;;;40.70;20.83;;;0.40;99.90;;;;;;5071054;28;20040;-70
2022/12/16 02:37:55;;;;;;;;;;;0.50;99.90;;;;;;5073397;28;20052;-70
2022/12/16 02:40:42;;;;;;;38.47;20.60;;;0.40;99.90;;;;;;5055071;28;19922;-70
2022/12/16 02:43:18;;;;;;;46.33;21.77;;;0.40;99.90;;;;;;5072906;28;20622;-69
2022/12/16 02:45:45;;;;;;;45.65;23.77;;;0.40;99.90;;;;;;5072207;28;20081;-71
2022/12/16 02:48:11;;;;;;;47.80;23.23;;;0.40;99.90;;;;;;5071425;28;20047;-70
2022/12/16 02:50:45;;;;;;;48.25;23.27;;;0.40;99.90;;;;;;5071438;28;20036;-70
2022/12/16 02:53:11;;;;;;;44.28;23.60;;;0.50;99.90;;;;;;5054680;28;20393;-70
2022/12/16 02:55:52;;;;;;;48.72;24.13;;;0.40;99.90;;;;;;5053872;28;20045;-69
2022/12/16 02:58:34;;;;;;;40.78;22.40;;;0.40;99.90;;;;;;5054642;28;20125;-70
2022/12/16 03:01:12;;;;;;;42.50;21.23;;;0.40;99.90;;;;;;5071268;28;20048;-69
2022/12/16 03:03:45;;;;;;;52.90;22.42;;;0.50;99.90;;;;;;5072429;28;20397;-70
2022/12/16 03:06:15;;;;;;;43.38;21.45;;;0.40;99.90;;;;;;5072567;28;20460;-72
2022/12/16 03:08:46;;;;;;;46.83;22.38;;;0.40;99.90;;;;;;5071025;28;20033;-69
2022/12/16 03:11:13;;;;;;;44.77;20.67;;;0.50;99.90;;;;;;5070320;28;20051;-69
2022/12/16 03:13:43;;;;;;;46.05;23.85;;;0.50;99.90;;;;;;5070999;28;20041;-69
2022/12/16 03:16:12;;;;;;;46.78;22.48;;;0.50;99.90;;;;;;5071126;28;20048;-72
2022/12/16 03:18:41;;;;;;;41.58;21.35;;;0.50;99.90;;;;;;5070822;28;20036;-70
2022/12/16 03:21:09;;;;;;;45.60;21.80;;;0.50;99.90;;;;;;5070996;28;20044;-70
2022/12/16 03:23:50;;;;;;;48.20;24.08;;;0.50;99.90;;;;;;5070612;28;20040;-69
2022/12/16 03:26:33;;;;;;;45.13;21.75;;;0.60;99.90;;;;;;5070892;28;20044;-70
2022/12/16 03:29:19;;;;;;;46.30;22.05;;;0.50;99.90;;;;;;5070668;28;20067;-69
2022/12/16 03:31:57;;;;;;;50.53;23.92;;;0.50;99.90;;;;;;5071942;28;20059;-70
2022/12/16 03:34:35;;;;;;;38.42;20.95;;;0.50;99.90;;;;;;5053119;28;20075;-70
2022/12/16 03:37:07;;;;;;;49.20;22.88;;;0.50;99.90;;;;;;5071891;28;20520;-69
2022/12/16 03:39:38;;;;;;;54.45;24.13;;;0.40;99.90;;;;;;5070283;28;20056;-69
2022/12/16 03:42:05;;;;;;;50.53;23.30;;;0.50;99.90;;;;;;5070378;28;20063;-70
2022/12/16 03:44:31;;;;;;;51.58;23.48;;;0.50;99.90;;;;;;5069602;28;20151;-70
2022/12/16 03:46:57;;;;;;;48.65;23.08;;;0.50;99.90;;;;;;5071727;28;20085;-70
2022/12/16 03:49:22;;;;;;;42.35;23.27;;;0.50;99.90;;;;;;5070206;28;20115;-70
2022/12/16 03:51:48;;;;;;;43.72;21.95;;;0.50;99.90;;;;;;5070354;28;20447;-70
2022/12/16 03:54:14;;;;;;;44.88;22.45;;;0.50;99.90;;;;;;5069486;28;20056;-72
2022/12/16 03:56:39;;;;;;;48.03;22.98;;;0.50;99.90;;;;;;5071467;28;20041;-70
2022/12/16 03:59:05;;;;;;;47.20;21.75;;;0.50;99.90;;;;;;5070008;28;20385;-69
2022/12/16 04:01:30;;;;;;;46.17;22.33;;;0.50;99.90;;;;;;5070023;28;20040;-69
2022/12/16 04:03:56;;;;;;;41.70;20.65;;;0.50;99.90;;;;;;5068622;28;20509;-70
2022/12/16 04:06:21;;;;;;;47.78;22.77;;;0.50;99.90;;;;;;5070055;28;20107;-70
2022/12/16 04:08:47;;;;;;;44.17;23.73;;;0.50;99.90;;;;;;5070211;28;20134;-69
2022/12/16 04:25:23;;;;;;;42.85;21.70;;;0.50;99.90;;;;;;5068954;28;20057;-71
2022/12/16 04:27:49;;;;;;;49.15;23.58;;;0.50;99.90;;;;;;5069600;28;20485;-69
2022/12/16 04:30:19;;;;;;;47.28;22.27;;;0.50;99.90;;;;;;5070955;28;20036;-70
